Sirona III — V7JQ8 — position and weather

sailwx.info

Track history (hours):
 
Tides and Currents Weather Stations Pressure Air Temp Water Temp Dewpoint Dewpoint Depression Visibility Wind Speed Wind Dir Waves Ship Positions

Sirona III

Last reported at 2018-Apr-18 13:43 UTC. Time now 2018-Apr-19 23:20 UTC.
Position N 39°15' E 003°03'.

Length 57 m; draft 3.2 m.

Type: Pleasure craft. MMSI: 538070201.

Date/timePositionNaut miles runAvg speedWind from/ knotsBaromVisibWave heightAir tempDewpointWater temp
2018-Apr-18 13:43N 39°15' E 003°03'312.2
2018-Apr-18 13:30N 39°16' E 003°00'612.3
2018-Apr-18 13:00N 39°18' E 002°53'612.2
2018-Apr-18 12:30N 39°21' E 002°46'612.4
2018-Apr-18 12:00N 39°26' E 002°40'612.4
2018-Apr-18 11:31N 39°30' E 002°35'2 2.5
2018-Apr-18 10:49N 39°32' E 002°34'0 0.0
2018-Apr-18 10:07N 39°32' E 002°34'0 0.0
2018-Apr-18 09:58N 39°32' E 002°34'0 0.0
2018-Apr-18 09:16N 39°32' E 002°34'0 0.0
2018-Apr-18 08:55N 39°32' E 002°34'0 0.0
2018-Apr-18 08:25N 39°32' E 002°34'0 0.0
2018-Apr-18 07:55N 39°32' E 002°34'0 0.0
2018-Apr-18 07:25N 39°32' E 002°34'0 0.0
2018-Apr-18 06:55N 39°32' E 002°34'0 0.0
2018-Apr-18 06:30N 39°32' E 002°34'3 5.6
2018-Apr-18 06:00N 39°29' E 002°34'612.0
2018-Apr-18 05:30N 39°23' E 002°31'612.2
2018-Apr-18 05:00N 39°18' E 002°26'19312.3
2018-Apr-17 13:20N 37°15' W 000°42'234 7.6
2018-Apr-16 06:36N 36°09' W 005°22'0 2.5
2018-Apr-16 06:30N 36°08' W 005°22'4 8.2
2018-Apr-16 06:00N 36°05' W 005°20'5 8.2
2018-Apr-16 05:22N 36°03' W 005°14'410.6
2018-Apr-16 05:00N 36°00' W 005°18'713.9
2018-Apr-16 04:29N 35°58' W 005°26'  
2018-Apr-09 20:08N 33°54' W 026°23'210.8
2018-Apr-09 19:59N 33°54' W 026°25'910.7
2018-Apr-09 19:07N 33°55' W 026°36'1410.6
2018-Apr-09 17:48N 33°58' W 026°53'310.6
2018-Apr-09 17:30N 33°58' W 026°56'610.4
2018-Apr-09 16:56N 33°59' W 027°03'3810.3
2018-Apr-09 13:13N 34°05' W 027°49'310.2
2018-Apr-09 12:53N 34°06' W 027°53'  
Track history (hours):
 
Tides and Currents Weather Stations Pressure Air Temp Water Temp Dewpoint Dewpoint Depression Visibility Wind Speed Wind Dir Waves Ship Positions

Sirona III

Last reported at 2018-Apr-18 13:43 UTC. Time now 2018-Apr-19 23:20 UTC.
Position N 39°15' E 003°03'.

Length 57 m; draft 3.2 m.

Type: Pleasure craft. MMSI: 538070201.

Date/timePositionNaut miles runAvg speedWind from/ knotsBaromVisibWave heightAir tempDewpointWater temp
2018-Apr-18 13:43N 39°15' E 003°03'312.2
2018-Apr-18 13:30N 39°16' E 003°00'612.3
2018-Apr-18 13:00N 39°18' E 002°53'612.2
2018-Apr-18 12:30N 39°21' E 002°46'612.4
2018-Apr-18 12:00N 39°26' E 002°40'612.4
2018-Apr-18 11:31N 39°30' E 002°35'2 2.5
2018-Apr-18 10:49N 39°32' E 002°34'0 0.0
2018-Apr-18 10:07N 39°32' E 002°34'0 0.0
2018-Apr-18 09:58N 39°32' E 002°34'0 0.0
2018-Apr-18 09:16N 39°32' E 002°34'0 0.0
2018-Apr-18 08:55N 39°32' E 002°34'0 0.0
2018-Apr-18 08:25N 39°32' E 002°34'0 0.0
2018-Apr-18 07:55N 39°32' E 002°34'0 0.0
2018-Apr-18 07:25N 39°32' E 002°34'0 0.0
2018-Apr-18 06:55N 39°32' E 002°34'0 0.0
2018-Apr-18 06:30N 39°32' E 002°34'3 5.6
2018-Apr-18 06:00N 39°29' E 002°34'612.0
2018-Apr-18 05:30N 39°23' E 002°31'612.2
2018-Apr-18 05:00N 39°18' E 002°26'19312.3
2018-Apr-17 13:20N 37°15' W 000°42'234 7.6
2018-Apr-16 06:36N 36°09' W 005°22'0 2.5
2018-Apr-16 06:30N 36°08' W 005°22'4 8.2
2018-Apr-16 06:00N 36°05' W 005°20'5 8.2
2018-Apr-16 05:22N 36°03' W 005°14'410.6
2018-Apr-16 05:00N 36°00' W 005°18'713.9
2018-Apr-16 04:29N 35°58' W 005°26'  
2018-Apr-09 20:08N 33°54' W 026°23'210.8
2018-Apr-09 19:59N 33°54' W 026°25'910.7
2018-Apr-09 19:07N 33°55' W 026°36'1410.6
2018-Apr-09 17:48N 33°58' W 026°53'310.6
2018-Apr-09 17:30N 33°58' W 026°56'610.4
2018-Apr-09 16:56N 33°59' W 027°03'3810.3
2018-Apr-09 13:13N 34°05' W 027°49'310.2
2018-Apr-09 12:53N 34°06' W 027°53'  

Dump ship's entire track history